Time;durP1;ratioP1;P1;durP2;ratioP2;P2;SDS_P1;SDS_P2;PMS_P1;PMS_P2;Temp;Humidity;BMP_temperature;BMP_pressure;BME280_temperature;BME280_humidity;BME280_pressure;Samples;Min_cycle;Max_cycle;Signal;HPM_P1;HPM_P2
2021/09/13 00:01:10;;;;;;;6.75;6.32;;;;;;;15.53;91.96;100186.25;10471134;28;20041;-73
2021/09/13 00:06:13;;;;;;;8.43;7.75;;;;;;;15.83;90.17;100181.25;10470681;28;20037;-73
2021/09/13 00:11:14;;;;;;;7.18;6.68;;;;;;;15.49;91.70;100187.34;10470751;28;20098;-73
2021/09/13 00:16:17;;;;;;;7.78;7.22;;;;;;;15.49;92.18;100184.69;10470660;28;20094;-74
2021/09/13 00:21:18;;;;;;;8.68;8.07;;;;;;;15.22;93.05;100184.25;10470660;28;20051;-74
2021/09/13 00:26:20;;;;;;;8.60;8.00;;;;;;;14.99;94.30;100182.72;10471111;28;20044;-73
2021/09/13 00:31:23;;;;;;;9.15;8.45;;;;;;;14.94;94.61;100176.78;10464356;28;20064;-76
2021/09/13 00:36:24;;;;;;;9.68;8.80;;;;;;;14.93;94.70;100182.16;10463692;28;20102;-75
2021/09/13 00:41:26;;;;;;;9.65;9.05;;;;;;;14.92;94.66;100189.25;10461947;28;20498;-75
2021/09/13 00:46:28;;;;;;;9.43;8.82;;;;;;;14.91;94.29;100186.66;10461898;28;20075;-75
2021/09/13 00:51:29;;;;;;;8.43;7.72;;;;;;;15.11;93.46;100189.22;10461823;28;20457;-76
2021/09/13 00:56:31;;;;;;;7.93;7.32;;;;;;;15.03;93.03;100186.09;10463035;28;20040;-77
2021/09/13 01:01:33;;;;;;;8.15;7.45;;;;;;;14.85;93.60;100178.09;10462708;28;20095;-76
2021/09/13 01:06:35;;;;;;;9.10;8.30;;;;;;;14.95;93.30;100175.00;10461718;28;20045;-76
2021/09/13 01:11:37;;;;;;;9.00;8.32;;;;;;;14.70;94.47;100176.16;10462189;28;20450;-74
2021/09/13 01:16:39;;;;;;;7.78;7.28;;;;;;;14.61;95.27;100182.75;10461871;28;20454;-74
2021/09/13 01:21:41;;;;;;;8.52;7.72;;;;;;;14.48;95.10;100173.66;10461986;28;20037;-75
2021/09/13 01:26:43;;;;;;;9.27;8.68;;;;;;;14.62;94.26;100181.81;10459985;28;20049;-75
2021/09/13 01:31:47;;;;;;;9.55;8.75;;;;;;;14.47;94.06;100181.59;10443990;28;20041;-74
2021/09/13 01:36:56;;;;;;;7.75;7.15;;;;;;;14.41;94.70;100179.25;10461320;28;20069;-75
2021/09/13 01:41:59;;;;;;;7.93;7.43;;;;;;;14.46;94.24;100182.53;10459237;28;20051;-74
2021/09/13 01:47:03;;;;;;;9.18;8.38;;;;;;;14.77;90.93;100171.44;10461208;28;20064;-74
2021/09/13 01:52:05;;;;;;;8.73;8.20;;;;;;;14.43;93.19;100174.72;10460158;28;20099;-75
2021/09/13 01:57:07;;;;;;;8.68;8.07;;;;;;;14.32;94.15;100172.59;10461420;28;20403;-75
2021/09/13 02:02:12;;;;;;;8.52;7.82;;;;;;;14.25;94.11;100181.72;10459008;28;20045;-74
2021/09/13 02:07:54;;;;;;;8.68;8.02;;;;;;;14.25;94.01;100179.06;11484390;22;20024;-81
2021/09/13 02:12:58;;;;;;;8.73;7.97;;;;;;;14.13;94.04;100181.34;10400069;28;20072;-79
2021/09/13 02:18:07;;;;;;;8.98;8.27;;;;;;;14.03;94.50;100180.03;10393119;28;20045;-79
2021/09/13 02:23:13;;;;;;;8.70;8.10;;;;;;;13.97;94.56;100182.06;10379915;28;20117;-82
2021/09/13 02:28:16;;;;;;;8.48;7.78;;;;;;;14.07;93.61;100173.66;10376915;28;20052;-81
2021/09/13 02:33:18;;;;;;;8.48;7.78;;;;;;;13.92;94.21;100179.63;10393489;28;20052;-82
2021/09/13 02:38:19;;;;;;;7.10;6.60;;;;;;;13.88;94.36;100180.69;10394540;28;20044;-82
2021/09/13 02:43:21;;;;;;;9.10;8.40;;;;;;;13.89;93.84;100187.69;10392593;28;20049;-81
2021/09/13 02:48:23;;;;;;;12.23;10.43;;;;;;;14.03;92.97;100187.97;10391734;28;20050;-82
2021/09/13 02:53:26;;;;;;;9.80;9.10;;;;;;;14.08;92.47;100187.75;10375465;28;20038;-83
2021/09/13 02:58:28;;;;;;;11.90;8.75;;;;;;;14.03;92.89;100195.00;10390435;28;20045;-83
2021/09/13 03:03:30;;;;;;;11.20;10.15;;;;;;;14.03;93.51;100192.34;10393680;28;20040;-83
2021/09/13 03:08:32;;;;;;;10.43;9.65;;;;;;;13.61;95.11;100196.78;10391789;28;20113;-82
2021/09/13 03:13:34;;;;;;;9.90;9.18;;;;;;;13.44;96.02;100199.25;10390096;28;20048;-82
2021/09/13 03:18:40;;;;;;;9.80;8.90;;;;;;;13.44;96.68;100204.53;10391839;28;20052;-82
2021/09/13 03:23:42;;;;;;;10.30;9.20;;;;;;;13.74;95.24;100204.19;10377191;28;20077;-82
2021/09/13 03:28:44;;;;;;;9.55;8.85;;;;;;;13.87;93.73;100184.25;10394878;28;20038;-82
2021/09/13 03:33:48;;;;;;;10.25;9.43;;;;;;;13.55;94.85;100194.41;10377698;28;20141;-82
2021/09/13 03:38:50;;;;;;;10.32;9.60;;;;;;;13.48;96.11;100200.00;10394929;28;20061;-82
2021/09/13 03:43:53;;;;;;;10.00;9.10;;;;;;;13.50;95.30;100193.72;10392371;28;20042;-82
2021/09/13 03:48:55;;;;;;;9.68;8.98;;;;;;;13.36;95.66;100201.34;10392654;28;20046;-82
2021/09/13 03:53:56;;;;;;;9.23;8.50;;;;;;;13.37;95.36;100206.56;10391684;28;20045;-83
2021/09/13 03:58:58;;;;;;;10.27;9.38;;;;;;;13.52;94.94;100206.88;10391983;28;20042;-82
2021/09/13 04:04:01;;;;;;;11.20;10.20;;;;;;;13.34;95.17;100200.56;10392704;28;20069;-82
2021/09/13 04:14:29;;;;;;;11.05;9.88;;;;;;;13.17;95.71;100197.69;10394576;28;20186;-81
2021/09/13 04:19:44;;;;;;;11.20;10.30;;;;;;;13.11;95.83;100193.53;10385780;28;20061;-83
2021/09/13 04:25:00;;;;;;;9.07;8.25;;;;;;;13.19;95.90;100182.66;10399894;28;20048;-83
2021/09/13 04:30:17;;;;;;;9.88;9.15;;;;;;;13.25;95.36;100190.38;10396657;28;20038;-81
2021/09/13 04:35:38;;;;;;;10.75;9.95;;;;;;;13.08;96.46;100193.63;10409166;28;20037;-81
2021/09/13 04:40:58;;;;;;;10.00;9.18;;;;;;;13.08;96.47;100193.63;10405848;28;20500;-81
2021/09/13 04:46:26;;;;;;;10.00;9.30;;;;;;;13.16;96.07;100191.56;10395875;28;20054;-82
2021/09/13 04:51:54;;;;;;;10.18;9.27;;;;;;;13.18;96.67;100199.41;10397825;28;20132;-81
2021/09/13 04:57:07;;;;;;;11.00;10.07;;;;;;;13.21;96.45;100197.50;10396524;28;20057;-82
2021/09/13 05:02:09;;;;;;;10.27;9.48;;;;;;;13.33;96.06;100206.75;10399467;28;20098;-84
2021/09/13 05:07:13;;;;;;;11.23;10.18;;;;;;;13.54;95.17;100205.00;10398789;28;20061;-81
2021/09/13 05:12:15;;;;;;;10.32;9.45;;;;;;;13.82;93.30;100202.94;10382139;28;20072;-82
2021/09/13 05:17:17;;;;;;;11.13;10.13;;;;;;;13.72;94.46;100203.38;10396361;28;20061;-82
2021/09/13 05:22:18;;;;;;;11.30;10.57;;;;;;;13.76;95.40;100202.34;10379150;28;20072;-82
2021/09/13 05:27:21;;;;;;;12.90;11.80;;;;;;;13.74;96.31;100212.97;10397384;28;20053;-82
2021/09/13 05:32:23;;;;;;;15.10;13.52;;;;;;;13.67;97.59;100229.13;10395597;28;20054;-82
2021/09/13 05:37:25;;;;;;;12.65;11.65;;;;;;;13.75;97.77;100229.69;10380146;28;20136;-82
2021/09/13 05:42:27;;;;;;;12.82;10.55;;;;;;;13.93;97.10;100222.75;10396747;28;20404;-82
2021/09/13 05:47:28;;;;;;;11.10;10.30;;;;;;;14.05;96.08;100227.53;10399836;28;20515;-82
2021/09/13 05:52:30;;;;;;;12.02;10.95;;;;;;;14.01;97.23;100225.94;10415825;28;20042;-81
2021/09/13 05:57:32;;;;;;;11.40;10.57;;;;;;;14.14;96.58;100233.28;10417143;28;20057;-80
2021/09/13 06:02:33;;;;;;;12.30;10.35;;;;;;;14.21;95.76;100233.00;10416391;28;20064;-82
2021/09/13 06:07:55;;;;;;;11.65;10.85;;;;;;;14.20;95.07;100234.78;10415689;28;20057;-82
2021/09/13 06:12:58;;;;;;;12.68;11.48;;;;;;;14.31;95.58;100235.19;10393973;28;20467;-82
2021/09/13 06:18:00;;;;;;;11.88;10.60;;;;;;;14.70;94.03;100241.44;10410949;28;20072;-82
2021/09/13 06:23:02;;;;;;;11.07;10.20;;;;;;;15.04;93.23;100246.03;10412475;28;20103;-81
2021/09/13 06:28:06;;;;;;;11.48;9.38;;;;;;;15.72;86.93;100247.19;10409676;28;20072;-82
2021/09/13 06:33:10;;;;;;;9.95;9.15;;;;;;;15.77;86.91;100245.19;10403035;28;20037;-82
2021/09/13 06:38:15;;;;;;;8.82;8.02;;;;;;;15.63;88.64;100247.63;10397812;28;20049;-81
2021/09/13 06:43:18;;;;;;;8.55;7.82;;;;;;;15.68;89.59;100252.72;10399102;28;20064;-83
2021/09/13 06:48:25;;;;;;;10.05;9.05;;;;;;;15.76;89.47;100256.72;10397682;28;20072;-81
2021/09/13 06:53:26;;;;;;;14.85;9.85;;;;;;;15.85;88.87;100266.00;10397489;28;20080;-81
2021/09/13 06:58:28;;;;;;;9.90;8.55;;;;;;;16.07;88.49;100261.34;10394499;28;20053;-83
2021/09/13 07:03:30;;;;;;;9.45;8.55;;;;;;;16.62;83.99;100254.94;10396115;28;20053;-81
2021/09/13 07:08:32;;;;;;;8.85;8.05;;;;;;;16.35;85.90;100254.59;10394228;28;20455;-81
2021/09/13 07:13:34;;;;;;;11.40;8.68;;;;;;;16.73;84.08;100251.75;10392671;28;20042;-84
2021/09/13 07:18:41;;;;;;;10.48;9.35;;;;;;;16.80;85.01;100253.13;10396308;28;20054;-81
2021/09/13 07:23:43;;;;;;;9.13;8.52;;;;;;;17.01;82.92;100257.28;10394981;28;20038;-83
2021/09/13 07:28:45;;;;;;;10.18;9.38;;;;;;;17.28;82.80;100259.34;10392686;28;20049;-83
2021/09/13 07:33:46;;;;;;;11.23;10.43;;;;;;;17.37;82.20;100264.16;10391825;28;20054;-83
2021/09/13 07:38:47;;;;;;;11.32;10.30;;;;;;;17.53;81.98;100257.03;10392224;28;20045;-82
2021/09/13 07:43:49;;;;;;;11.60;10.70;;;;;;;17.76;79.66;100266.38;10399769;28;20042;-80
2021/09/13 07:48:51;;;;;;;10.98;9.40;;;;;;;18.23;77.70;100260.03;10402848;28;20077;-82
2021/09/13 07:53:52;;;;;;;10.88;10.07;;;;;;;18.60;72.21;100264.00;10406775;28;20045;-82
2021/09/13 07:58:54;;;;;;;9.40;8.70;;;;;;;18.11;75.04;100272.28;10410768;28;20042;-83
2021/09/13 08:03:56;;;;;;;11.93;10.90;;;;;;;18.65;73.37;100264.56;10404133;28;20034;-84
2021/09/13 08:08:58;;;;;;;9.85;9.05;;;;;;;18.65;73.65;100266.38;10406149;28;20046;-83
2021/09/13 08:14:00;;;;;;;10.52;9.60;;;;;;;18.60;73.86;100266.66;10422290;28;20068;-82
2021/09/13 08:19:03;;;;;;;10.07;9.27;;;;;;;18.80;72.42;100268.13;10419825;28;20088;-82
2021/09/13 08:24:07;;;;;;;10.65;9.85;;;;;;;18.64;72.81;100275.34;10410767;28;20061;-79
2021/09/13 08:29:16;;;;;;;10.88;9.88;;;;;;;19.06;72.13;100284.28;10400455;28;20052;-80
2021/09/13 08:34:18;;;;;;;11.00;10.00;;;;;;;19.16;71.70;100288.94;10398799;28;20051;-82
2021/09/13 08:39:20;;;;;;;10.50;9.80;;;;;;;19.22;72.09;100294.84;10400166;28;20041;-78
2021/09/13 08:44:22;;;;;;;9.93;9.23;;;;;;;19.62;68.56;100295.84;10401948;28;20430;-81
2021/09/13 08:49:29;;;;;;;11.48;10.48;;;;;;;19.56;71.01;100297.03;10396781;28;20045;-82
2021/09/13 08:54:34;;;;;;;12.63;11.65;;;;;;;19.73;68.87;100295.13;10414127;28;20070;-80
2021/09/13 08:59:38;;;;;;;12.93;11.82;;;;;;;19.94;68.27;100304.38;10399229;28;20404;-80
2021/09/13 09:04:44;;;;;;;12.27;11.38;;;;;;;20.12;67.94;100300.47;10396001;28;20045;-80
2021/09/13 09:09:46;;;;;;;12.68;11.75;;;;;;;20.10;66.05;100307.75;10400106;28;20100;-81
2021/09/13 09:14:48;;;;;;;11.10;10.30;;;;;;;20.20;66.70;100304.47;10396872;28;20093;-81
2021/09/13 09:20:05;;;;;;;12.18;11.35;;;;;;;20.31;67.26;100294.75;10379083;28;20080;-79
2021/09/13 09:25:24;;;;;;;11.75;10.85;;;;;;;20.76;65.08;100297.03;10398582;28;20042;-82
2021/09/13 09:30:34;;;;;;;9.25;8.57;;;;;;;21.67;62.19;100301.19;10398740;28;20046;-81
2021/09/13 09:35:44;;;;;;;8.63;8.02;;;;;;;21.65;62.15;100304.94;10397167;28;20099;-80
2021/09/13 09:40:45;;;;;;;9.18;8.52;;;;;;;20.87;62.32;100300.69;10398989;28;20514;-80
2021/09/13 09:45:47;;;;;;;9.60;8.80;;;;;;;20.89;62.54;100304.13;10394891;28;20515;-80
2021/09/13 09:50:49;;;;;;;7.75;7.15;;;;;;;21.36;61.29;100297.22;10394182;28;20105;-81
2021/09/13 09:55:53;;;;;;;7.15;6.65;;;;;;;21.54;61.65;100289.66;10395572;28;20050;-78
2021/09/13 10:00:54;;;;;;;6.88;6.38;;;;;;;21.37;61.53;100290.91;10397307;28;20042;-83
2021/09/13 10:05:56;;;;;;;6.85;6.35;;;;;;;21.14;61.44;100299.69;10397354;28;20049;-80
2021/09/13 10:10:58;;;;;;;6.72;6.13;;;;;;;21.54;60.93;100300.38;10394551;28;20164;-81
2021/09/13 10:15:59;;;;;;;5.90;5.50;;;;;;;21.80;60.77;100293.09;10396159;28;20045;-81
2021/09/13 10:21:01;;;;;;;6.57;5.93;;;;;;;22.47;59.04;100280.94;10392096;28;20046;-81
2021/09/13 10:26:05;;;;;;;7.55;6.85;;;;;;;22.64;59.08;100283.16;10397722;28;20088;-80
2021/09/13 10:31:06;;;;;;;8.00;7.30;;;;;;;21.72;60.11;100292.81;10399961;28;20100;-80
2021/09/13 10:36:19;;;;;;;7.18;6.57;;;;;;;22.46;57.04;100287.28;10379493;28;20050;-81
2021/09/13 10:41:56;;;;;;;7.22;6.53;;;;;;;22.05;58.39;100286.78;10393138;28;20046;-81
2021/09/13 10:47:01;;;;;;;6.90;6.20;;;;;;;22.74;57.50;100294.88;10376570;28;20053;-80
2021/09/13 10:52:28;;;;;;;7.90;7.20;;;;;;;23.07;55.90;100286.03;10396679;28;20103;-80
2021/09/13 10:57:52;;;;;;;6.55;5.95;;;;;;;22.40;56.04;100286.78;10393878;28;20049;-78
2021/09/13 11:03:22;;;;;;;5.32;4.93;;;;;;;22.73;54.94;100293.16;10395524;28;20041;-81
2021/09/13 11:08:25;;;;;;;5.03;4.53;;;;;;;23.14;54.99;100281.88;10396116;28;20057;-81
2021/09/13 11:13:27;;;;;;;4.75;4.30;;;;;;;23.39;53.94;100293.31;10393013;28;20046;-79
2021/09/13 11:18:43;;;;;;;4.85;4.10;;;;;;;23.46;52.21;100273.03;10395032;28;20049;-78
2021/09/13 11:24:00;;;;;;;6.05;5.45;;;;;;;23.35;54.53;100286.47;10385265;28;20110;-79
2021/09/13 11:29:07;;;;;;;5.93;5.38;;;;;;;23.26;54.67;100280.03;10405101;28;20070;-77
2021/09/13 11:34:12;;;;;;;6.75;5.72;;;;;;;23.07;53.29;100287.88;10401989;28;20110;-80
2021/09/13 11:39:14;;;;;;;6.50;4.82;;;;;;;23.28;54.50;100283.44;10401110;28;20072;-78
2021/09/13 11:44:17;;;;;;;5.55;5.15;;;;;;;23.01;53.90;100277.59;10401010;28;20038;-79
2021/09/13 11:49:30;;;;;;;4.38;3.97;;;;;;;22.95;51.42;100283.47;10398347;28;20050;-78
2021/09/13 11:54:40;;;;;;;6.63;6.00;;;;;;;23.44;51.83;100283.06;10390399;28;20057;-79
2021/09/13 11:59:50;;;;;;;6.65;6.18;;;;;;;23.11;53.49;100282.13;10391636;28;20073;-80
2021/09/13 12:04:52;;;;;;;5.10;4.70;;;;;;;23.05;53.17;100290.66;10391627;28;20427;-81
2021/09/13 12:40:28;;;;;;;5.15;4.70;;;;;;;21.88;56.13;100288.03;10548318;28;20142;-74
2021/09/13 12:45:31;;;;;;;4.97;4.30;;;;;;;22.03;54.44;100294.03;10502690;28;20037;-75
2021/09/13 12:50:38;;;;;;;5.95;4.40;;;;;;;22.01;55.12;100292.47;10402162;28;20380;-75
2021/09/13 12:58:29;;;;;;;4.70;4.30;;;;;;;21.69;54.91;100294.84;10678007;27;20118;-76
2021/09/13 13:03:32;;;;;;;3.60;3.20;;;;;;;21.65;53.48;100283.53;10492527;28;1234491;-76
2021/09/13 13:08:34;;;;;;;3.60;3.30;;;;;;;22.10;52.75;100289.94;10371326;28;20050;-76
2021/09/13 13:13:35;;;;;;;4.38;3.42;;;;;;;22.01;53.56;100281.75;10353632;28;20096;-76
2021/09/13 13:18:39;;;;;;;4.75;4.35;;;;;;;21.84;54.91;100275.00;10371868;28;20196;-76
2021/09/13 13:23:40;;;;;;;5.28;4.88;;;;;;;21.76;55.06;100272.03;10371537;28;20118;-76
2021/09/13 13:28:44;;;;;;;5.03;4.55;;;;;;;21.75;55.49;100268.50;10353735;28;20054;-75
2021/09/13 13:33:45;;;;;;;4.50;4.07;;;;;;;21.65;55.09;100256.78;10371570;28;20050;-74
2021/09/13 13:38:47;;;;;;;4.90;4.47;;;;;;;21.51;55.49;100243.56;10370779;28;20046;-76
2021/09/13 13:43:48;;;;;;;4.70;3.90;;;;;;;21.58;56.49;100253.69;10352646;28;20492;-76
2021/09/13 13:48:50;;;;;;;4.65;4.22;;;;;;;21.65;54.31;100254.13;10353007;28;20141;-76
2021/09/13 13:53:52;;;;;;;5.07;4.68;;;;;;;21.20;55.18;100245.78;10370849;28;20043;-76
2021/09/13 13:58:54;;;;;;;4.78;4.40;;;;;;;21.02;55.22;100244.44;10370331;28;20046;-77
2021/09/13 14:03:56;;;;;;;7.90;4.38;;;;;;;21.15;54.96;100247.94;10396406;28;20045;-76
2021/09/13 14:08:58;;;;;;;4.32;4.03;;;;;;;21.12;54.53;100243.69;10451868;28;20155;-76
2021/09/13 14:13:59;;;;;;;4.80;4.40;;;;;;;21.52;54.34;100238.13;10466357;28;20493;-74
2021/09/13 14:19:01;;;;;;;5.10;4.70;;;;;;;21.44;55.65;100231.63;10431204;28;20049;-74
2021/09/13 14:24:03;;;;;;;4.60;4.25;;;;;;;21.29;56.28;100226.38;10466683;28;20041;-75
2021/09/13 14:29:05;;;;;;;4.93;4.53;;;;;;;21.38;55.89;100225.78;10467378;28;20041;-75
2021/09/13 14:34:07;;;;;;;5.80;4.95;;;;;;;21.58;54.66;100229.63;10468239;28;20061;-75
2021/09/13 14:39:09;;;;;;;5.10;4.80;;;;;;;21.51;54.44;100224.84;10467699;28;20053;-76
2021/09/13 14:44:13;;;;;;;6.50;5.93;;;;;;;21.24;54.94;100225.88;10467403;28;20041;-75
2021/09/13 14:49:16;;;;;;;4.65;4.35;;;;;;;21.38;54.61;100220.44;10468369;28;20052;-75
2021/09/13 14:54:18;;;;;;;5.65;4.40;;;;;;;21.52;54.37;100224.75;10466123;28;20037;-75
2021/09/13 14:59:19;;;;;;;4.70;4.35;;;;;;;21.30;54.91;100220.09;10469703;28;20047;-76
2021/09/13 15:04:22;;;;;;;4.60;4.20;;;;;;;21.16;55.73;100217.56;10463037;28;20067;-75
2021/09/13 15:09:24;;;;;;;5.03;4.63;;;;;;;21.20;56.40;100213.69;10450445;28;20044;-76
2021/09/13 15:14:25;;;;;;;5.45;5.05;;;;;;;20.90;56.62;100217.66;10469128;28;20466;-77
2021/09/13 15:19:27;;;;;;;4.78;4.28;;;;;;;21.07;56.74;100213.75;10468109;28;20052;-76
2021/09/13 15:24:29;;;;;;;4.93;4.45;;;;;;;21.11;56.43;100217.91;10467664;28;20041;-76
2021/09/13 15:29:31;;;;;;;4.53;4.15;;;;;;;20.90;57.55;100214.97;10467941;28;20467;-77
2021/09/13 15:34:33;;;;;;;5.97;4.57;;;;;;;21.05;57.01;100210.34;10450896;28;20463;-77
2021/09/13 15:39:35;;;;;;;5.05;4.55;;;;;;;20.80;57.83;100210.38;10450042;28;20049;-77
2021/09/13 15:44:37;;;;;;;5.22;4.72;;;;;;;21.01;56.47;100208.84;10470614;28;20487;-77
2021/09/13 15:49:38;;;;;;;4.95;4.55;;;;;;;20.64;57.37;100216.84;10449376;28;20128;-78
2021/09/13 15:54:40;;;;;;;5.55;5.15;;;;;;;20.50;58.55;100210.75;10467261;28;20135;-77
2021/09/13 15:59:42;;;;;;;5.13;4.20;;;;;;;20.42;59.09;100213.94;10469216;28;20049;-76
2021/09/13 16:04:44;;;;;;;5.30;4.80;;;;;;;20.28;58.93;100214.91;10452188;28;20045;-77
2021/09/13 16:09:45;;;;;;;5.35;4.85;;;;;;;20.10;60.40;100217.00;10426254;28;20041;-76
2021/09/13 16:14:47;;;;;;;5.80;4.50;;;;;;;20.13;58.93;100223.94;10423466;28;20045;-76
2021/09/13 16:19:48;;;;;;;5.13;4.72;;;;;;;19.87;60.06;100225.69;10424922;28;20059;-77
2021/09/13 16:24:52;;;;;;;5.05;4.63;;;;;;;19.79;60.57;100228.03;10406915;28;20076;-78
2021/09/13 16:29:54;;;;;;;8.88;5.32;;;;;;;19.64;60.62;100222.75;10424480;28;20115;-77
2021/09/13 16:34:55;;;;;;;5.45;4.95;;;;;;;19.55;60.58;100223.34;10424081;28;20515;-77
2021/09/13 16:39:57;;;;;;;4.95;4.57;;;;;;;19.37;61.37;100222.75;10423167;28;20042;-76
2021/09/13 16:44:59;;;;;;;4.82;4.43;;;;;;;19.34;61.44;100227.41;10421247;28;20103;-75
2021/09/13 16:50:00;;;;;;;4.50;4.20;;;;;;;19.26;62.16;100229.75;10417657;28;20053;-76
2021/09/13 16:55:02;;;;;;;4.90;4.50;;;;;;;19.17;62.58;100228.53;10418423;28;20080;-75
2021/09/13 17:00:05;;;;;;;4.40;4.00;;;;;;;19.23;62.92;100230.78;10401400;28;20042;-75
2021/09/13 17:05:07;;;;;;;5.15;4.75;;;;;;;19.16;64.10;100232.97;10418247;28;20045;-76
2021/09/13 17:10:09;;;;;;;8.65;5.38;;;;;;;19.15;65.82;100233.94;10418604;28;20049;-75
2021/09/13 17:15:11;;;;;;;8.68;6.38;;;;;;;19.08;66.87;100229.97;10400369;28;20041;-75
2021/09/13 17:20:13;;;;;;;6.68;6.15;;;;;;;19.00;67.28;100229.59;10418453;28;20045;-75
2021/09/13 17:25:15;;;;;;;7.50;6.50;;;;;;;18.66;68.74;100233.47;10418045;28;20046;-74
2021/09/13 17:30:17;;;;;;;8.77;7.47;;;;;;;18.61;69.19;100235.56;10415981;28;20488;-76
2021/09/13 17:35:19;;;;;;;8.13;7.55;;;;;;;18.46;69.36;100228.50;10417384;28;20072;-76
2021/09/13 17:40:21;;;;;;;10.55;9.80;;;;;;;18.26;70.41;100232.41;10416411;28;20503;-76
2021/09/13 17:45:22;;;;;;;9.13;8.20;;;;;;;18.14;71.27;100234.00;10423713;28;20388;-76
2021/09/13 17:50:24;;;;;;;9.20;8.48;;;;;;;18.17;71.27;100228.50;10425281;28;20053;-77
2021/09/13 17:55:26;;;;;;;15.02;13.40;;;;;;;18.09;71.25;100241.38;10423946;28;20053;-76
2021/09/13 18:00:27;;;;;;;11.70;10.80;;;;;;;17.99;71.59;100235.78;10422769;28;20048;-74
2021/09/13 18:05:29;;;;;;;10.60;9.90;;;;;;;17.72;72.98;100248.00;10405968;28;20099;-76
2021/09/13 18:10:31;;;;;;;8.90;8.32;;;;;;;17.53;74.17;100242.84;10423019;28;20462;-76
2021/09/13 18:15:32;;;;;;;10.50;9.70;;;;;;;17.42;74.70;100247.94;10406084;28;20044;-76
2021/09/13 18:20:35;;;;;;;10.35;9.65;;;;;;;17.35;75.58;100260.69;10423457;28;20060;-75
2021/09/13 18:25:39;;;;;;;11.65;10.75;;;;;;;17.24;75.70;100257.81;10423032;28;20037;-76
2021/09/13 18:30:41;;;;;;;10.50;9.80;;;;;;;17.29;75.97;100269.03;10422599;28;20491;-77
2021/09/13 18:35:43;;;;;;;10.32;9.55;;;;;;;17.45;74.51;100269.03;10405212;28;20431;-77
2021/09/13 18:40:44;;;;;;;9.10;8.38;;;;;;;17.39;74.24;100278.19;10404432;28;20099;-74
2021/09/13 18:45:46;;;;;;;9.02;8.32;;;;;;;17.18;75.72;100284.69;10422392;28;20490;-75
2021/09/13 18:50:48;;;;;;;9.93;9.23;;;;;;;16.87;77.05;100287.25;10420929;28;20051;-74
2021/09/13 18:55:50;;;;;;;10.65;9.85;;;;;;;16.87;77.63;100289.03;10420705;28;20445;-74
2021/09/13 19:00:51;;;;;;;10.32;9.63;;;;;;;16.94;77.17;100287.75;10420328;28;20045;-74
2021/09/13 19:05:53;;;;;;;9.70;8.80;;;;;;;16.84;77.17;100292.72;10377912;28;20034;-75
2021/09/13 19:10:56;;;;;;;9.02;8.52;;;;;;;16.67;78.08;100295.38;10362166;28;20092;-74
2021/09/13 19:15:58;;;;;;;8.65;8.15;;;;;;;16.45;78.99;100300.94;10380054;28;20068;-75
2021/09/13 19:21:00;;;;;;;10.20;9.43;;;;;;;16.35;79.65;100305.88;10378343;28;20084;-73
2021/09/13 19:26:03;;;;;;;10.85;9.98;;;;;;;16.33;80.19;100306.88;10379811;28;20038;-74
2021/09/13 19:31:05;;;;;;;10.27;9.65;;;;;;;16.25;81.05;100314.38;10377746;28;20058;-75
2021/09/13 19:36:07;;;;;;;10.93;10.27;;;;;;;16.29;80.79;100315.91;10378079;28;20060;-75
2021/09/13 19:41:08;;;;;;;9.48;8.75;;;;;;;16.50;79.62;100317.47;10378487;28;20038;-75
2021/09/13 19:46:10;;;;;;;9.90;9.00;;;;;;;16.59;78.89;100314.34;10360611;28;20060;-74
2021/09/13 19:51:13;;;;;;;9.80;8.85;;;;;;;16.42;79.28;100309.03;10361268;28;20538;-75
2021/09/13 19:56:15;;;;;;;9.75;9.05;;;;;;;16.12;81.46;100315.00;10377908;28;20046;-75
2021/09/13 20:01:16;;;;;;;10.80;10.13;;;;;;;16.25;81.24;100309.06;10378456;28;20046;-74
2021/09/13 20:06:19;;;;;;;11.32;10.52;;;;;;;16.28;80.58;100303.59;10405605;28;20075;-75
2021/09/13 20:11:20;;;;;;;11.45;10.65;;;;;;;16.07;81.05;100310.84;10401334;28;20053;-73
2021/09/13 20:16:22;;;;;;;10.68;9.98;;;;;;;16.01;81.86;100314.66;10400577;28;20042;-75
2021/09/13 20:21:24;;;;;;;10.25;9.50;;;;;;;15.87;82.47;100304.75;10400411;28;20056;-74
2021/09/13 20:26:26;;;;;;;9.88;9.18;;;;;;;15.70;83.69;100307.34;10418763;28;20049;-75
2021/09/13 20:31:27;;;;;;;11.75;10.85;;;;;;;15.60;83.66;100301.63;10418913;28;20054;-74
2021/09/13 20:36:30;;;;;;;11.27;10.52;;;;;;;15.76;83.38;100303.53;10402668;28;20124;-74
2021/09/13 20:41:33;;;;;;;12.30;11.52;;;;;;;15.81;82.47;100299.75;10417862;28;20060;-73
2021/09/13 20:46:34;;;;;;;11.60;10.80;;;;;;;15.49;83.77;100309.19;10403085;28;20041;-74
2021/09/13 20:51:36;;;;;;;11.20;10.60;;;;;;;15.22;85.26;100308.72;10420832;28;20110;-75
2021/09/13 20:56:39;;;;;;;14.77;13.57;;;;;;;15.45;85.36;100304.13;10419298;28;20063;-74
2021/09/13 21:01:41;;;;;;;12.65;11.60;;;;;;;15.27;85.22;100304.09;10401442;28;20045;-74
2021/09/13 21:06:43;;;;;;;12.80;11.77;;;;;;;15.19;85.62;100300.94;10410766;28;20049;-74
2021/09/13 21:11:45;;;;;;;15.15;14.15;;;;;;;15.24;85.05;100311.31;10418849;28;20053;-74
2021/09/13 21:16:47;;;;;;;11.95;11.20;;;;;;;15.08;85.71;100301.41;10420213;28;20044;-75
2021/09/13 21:21:49;;;;;;;14.32;13.23;;;;;;;15.36;84.10;100305.41;10425636;28;20117;-73
2021/09/13 21:26:51;;;;;;;14.35;13.35;;;;;;;14.91;85.72;100308.41;10424777;28;20060;-75
2021/09/13 21:31:54;;;;;;;13.98;12.75;;;;;;;14.92;85.90;100310.13;10441258;28;20058;-74
2021/09/13 21:36:56;;;;;;;13.68;12.35;;;;;;;15.08;85.32;100314.66;10443563;28;20054;-74
2021/09/13 21:41:57;;;;;;;14.80;13.90;;;;;;;15.03;84.70;100316.66;10426158;28;20049;-74
2021/09/13 21:47:00;;;;;;;14.63;13.57;;;;;;;14.67;86.48;100315.66;10433328;28;20459;-74
2021/09/13 21:52:02;;;;;;;15.52;14.43;;;;;;;14.39;87.88;100307.13;10425711;28;20053;-73
2021/09/13 21:57:05;;;;;;;16.65;15.55;;;;;;;14.32;88.50;100313.59;10422792;28;20095;-75
2021/09/13 22:02:07;;;;;;;18.00;16.90;;;;;;;14.32;88.25;100310.09;10422887;28;20049;-74
2021/09/13 22:07:09;;;;;;;18.20;16.98;;;;;;;14.30;88.07;100309.31;10422195;28;20103;-74
2021/09/13 22:12:11;;;;;;;18.95;17.52;;;;;;;14.47;87.89;100301.47;10420664;28;20137;-73
2021/09/13 22:17:12;;;;;;;18.33;17.23;;;;;;;14.18;88.80;100317.75;10421555;28;20045;-74
2021/09/13 22:22:14;;;;;;;17.85;16.67;;;;;;;14.05;89.78;100312.13;10404319;28;20108;-74
2021/09/13 22:27:16;;;;;;;17.65;16.55;;;;;;;14.05;89.20;100315.63;10403594;28;20456;-74
2021/09/13 22:32:17;;;;;;;16.85;15.75;;;;;;;14.09;89.04;100326.94;10419806;28;20053;-74
2021/09/13 22:37:19;;;;;;;16.52;15.38;;;;;;;14.01;89.33;100331.66;10420443;28;20045;-74
2021/09/13 22:42:21;;;;;;;17.58;16.55;;;;;;;14.05;88.86;100320.91;10402455;28;20084;-73
2021/09/13 22:47:23;;;;;;;17.45;16.10;;;;;;;14.15;88.63;100331.94;10420153;28;20095;-74
2021/09/13 22:52:25;;;;;;;16.48;15.48;;;;;;;14.38;86.71;100325.69;10419698;28;20111;-74
2021/09/13 22:57:26;;;;;;;18.42;17.33;;;;;;;14.12;88.11;100322.38;10419729;28;20044;-74
2021/09/13 23:02:28;;;;;;;17.58;16.58;;;;;;;13.85;89.24;100326.13;10420089;28;20447;-73
2021/09/13 23:07:30;;;;;;;19.42;18.33;;;;;;;13.84;89.27;100322.63;10419307;28;20392;-74
2021/09/13 23:12:31;;;;;;;20.80;19.33;;;;;;;13.72;90.04;100330.19;10419330;28;20115;-74
2021/09/13 23:17:33;;;;;;;20.13;18.88;;;;;;;13.74;89.72;100329.22;10419964;28;20057;-74
2021/09/13 23:22:36;;;;;;;18.20;17.10;;;;;;;13.62;89.66;100321.78;10419696;28;20045;-74
2021/09/13 23:27:38;;;;;;;19.23;18.10;;;;;;;13.85;88.54;100331.41;10401090;28;20045;-73
2021/09/13 23:32:39;;;;;;;19.05;17.85;;;;;;;13.82;88.20;100321.00;10418816;28;20045;-74
2021/09/13 23:37:41;;;;;;;21.48;20.13;;;;;;;13.75;88.88;100323.00;10417548;28;20065;-73
2021/09/13 23:42:43;;;;;;;22.15;20.33;;;;;;;13.58;90.18;100328.94;10400776;28;20045;-75